KCGI/CGI METAR and TAF weather

Enter ICAO airport designator
Station Type Date Time Source
KCGI METAR 2020/01/18 20:53 UTC NOAA

KCGI 182053Z 28017KT 10SM CLR 11/04 A3008 RMK AO2 PK WND 28031/2025 SLP186 T01060039 53026


Station Type Date Time Source
KCGI Decoded METAR 2020/01/18 20:53 UTC NOAA

CAPE GIRARDEAU REGIONAL, MO, United States (KCGI) 37-14N 089-35W 102M
Jan 18, 2020 - 03:53 PM EST / 2020.01.18 2053 UTC
Wind: from the W (280 degrees) at 20 MPH (17 KT):0
Visibility: 10 mile(s):0
Sky conditions: clear
Temperature: 51.1 F (10.6 C)
Dew Point: 39.0 F (3.9 C)
Relative Humidity: 63%
Pressure (altimeter): 30.08 in. Hg (1018 hPa)
Pressure tendency: 0.08 inches (2.6 hPa) higher than three hours ago
ob: KCGI 182053Z 28017KT 10SM CLR 11/04 A3008 RMK AO2 PK WND 28031/2025 SLP186 T01060039 53026
cycle: 21

Station Type Date Time Source
KCGI TAF 2020/01/18 17:58 UTC NOAA

TAF
AMD KCGI 181658Z 1817/1912 29014G24KT P6SM SCT035
FM190100 31014G20KT P6SM SKC

Example: see airport list